Observation data for Floydada on 06/19/2019      Previous  Date  Next       Current Mesonet Observations  Soil Data  Daily Summary Page  Observations in Plain Language
KFLS 190500Z 18010KT 19/15 A2993 RMK A01 T01930150  RH  078%=      5-min Rain = 0
KFLS 190505Z 18009KT 20/15 A2992 RMK A01 T01950149  RH  076%=      5-min Rain = 0
KFLS 190510Z 19010KT 20/15 A2992 RMK A01 T01980147  RH  074%=      5-min Rain = 0
KFLS 190515Z 18012G17KT 20/15 A2992 RMK A01 T02020145  RH  071%=      5-min Rain = 0
KFLS 190520Z 18014KT 21/15 A2992 RMK A01 T02060145  RH  069%=      5-min Rain = 0
KFLS 190525Z 18013G18KT 21/15 A2992 RMK A01 T02060146  RH  070%=      5-min Rain = 0
KFLS 190530Z 18014KT 20/15 A2991 RMK A01 T02030149  RH  072%=      5-min Rain = 0
KFLS 190535Z 18015KT 20/15 A2991 RMK A01 T02040151  RH  073%=      5-min Rain = 0
KFLS 190540Z 18014G19KT 20/15 A2991 RMK A01 T02030152  RH  074%=      5-min Rain = 0
KFLS 190545Z 18014G19KT 20/15 A2991 RMK A01 T02020153  RH  075%=      5-min Rain = 0
KFLS 190550Z 18015G21KT 20/16 A2991 RMK A01 T02010155  RH  076%=      5-min Rain = 0
KFLS 190555Z 18016G21KT 20/16 A2991 RMK A01 T02020156  RH  077%=      5-min Rain = 0
KFLS 190600Z 18016G23KT 21/16 A2991 RMK A01 T02050158  RH  077%=      5-min Rain = 0
KFLS 190605Z 18017G23KT 21/16 A2991 RMK A01 T02070160  RH  076%=      5-min Rain = 0
KFLS 190610Z 18016G21KT 21/16 A2991 RMK A01 T02070162  RH  077%=      5-min Rain = 0
KFLS 190615Z 17017G23KT 21/16 A299 RMK A01 T02080162  RH  077%=      5-min Rain = 0
KFLS 190620Z 17018G25KT 21/16 A299 RMK A01 T02070162  RH  077%=      5-min Rain = 0
KFLS 190625Z 17017G25KT 21/16 A299 RMK A01 T02050163  RH  079%=      5-min Rain = 0
KFLS 190630Z 17017G22KT 20/16 A2989 RMK A01 T02040159  RH  077%=      5-min Rain = 0
KFLS 190635Z 17016G21KT 20/16 A299 RMK A01 T02020158  RH  077%=      5-min Rain = 0
KFLS 190640Z 18015KT 20/16 A299 RMK A01 T02000156  RH  078%=      5-min Rain = 0
KFLS 190645Z 18015G20KT 20/15 A299 RMK A01 T01980154  RH  077%=      5-min Rain = 0
KFLS 190650Z 18015G20KT 20/15 A299 RMK A01 T01970152  RH  077%=      5-min Rain = 0
KFLS 190655Z 18015G20KT 20/15 A299 RMK A01 T01950150  RH  077%=      5-min Rain = 0
KFLS 190700Z 18015G20KT 20/15 A299 RMK A01 T01950148  RH  076%=      5-min Rain = 0
KFLS 190705Z 18014G20KT 19/15 A299 RMK A01 T01930147  RH  076%=      5-min Rain = 0
KFLS 190710Z 18014KT 19/14 A299 RMK A01 T01920144  RH  075%=      5-min Rain = 0
KFLS 190715Z 18013G18KT 19/14 A299 RMK A01 T01910144  RH  075%=      5-min Rain = 0
KFLS 190720Z 19012KT 19/14 A299 RMK A01 T01890144  RH  077%=      5-min Rain = 0
KFLS 190725Z 19013KT 19/14 A299 RMK A01 T01900143  RH  076%=      5-min Rain = 0
KFLS 190730Z 18011KT 19/14 A299 RMK A01 T01900144  RH  076%=      5-min Rain = 0
KFLS 190735Z 18010KT 19/14 A299 RMK A01 T01860144  RH  078%=      5-min Rain = 0
KFLS 190740Z 19010KT 19/14 A299 RMK A01 T01870144  RH  078%=      5-min Rain = 0
KFLS 190745Z 19009KT 18/14 A299 RMK A01 T01840144  RH  079%=      5-min Rain = 0
KFLS 190750Z 18008KT 18/14 A299 RMK A01 T01820144  RH  080%=      5-min Rain = 0
KFLS 190755Z 18008KT 18/14 A2989 RMK A01 T01820144  RH  080%=      5-min Rain = 0
KFLS 190800Z 19009KT 18/14 A2989 RMK A01 T01840144  RH  079%=      5-min Rain = 0
KFLS 190805Z 19008KT 18/14 A2989 RMK A01 T01830144  RH  080%=      5-min Rain = 0
KFLS 190810Z 19009KT 18/15 A2989 RMK A01 T01820145  RH  080%=      5-min Rain = 0
KFLS 190815Z 20007KT 18/15 A2989 RMK A01 T01810145  RH  081%=      5-min Rain = 0
KFLS 190820Z 20007KT 18/15 A2989 RMK A01 T01820146  RH  081%=      5-min Rain = 0
KFLS 190825Z 20006KT 18/15 A299 RMK A01 T01810146  RH  082%=      5-min Rain = 0
KFLS 190830Z 21004KT 18/15 A299 RMK A01 T01830147  RH  081%=      5-min Rain = 0
KFLS 190835Z 30003KT 18/15 A299 RMK A01 T01830147  RH  081%=      5-min Rain = 0
KFLS 190840Z 36007KT 18/15 A2991 RMK A01 T01760147  RH  085%=      5-min Rain = 0
KFLS 190845Z 00009KT 17/15 A2992 RMK A01 T01740150  RH  088%=      5-min Rain = 0
KFLS 190850Z 01009KT 18/15 A2992 RMK A01 T01760149  RH  086%=      5-min Rain = 0
KFLS 190855Z 01005KT 18/15 A2992 RMK A01 T01750149  RH  086%=      5-min Rain = 0
KFLS 190900Z 31004G9KT 18/15 A2992 RMK A01 T01790149  RH  084%=      5-min Rain = 0
KFLS 190905Z 32008KT 18/15 A2993 RMK A01 T01800149  RH  084%=      5-min Rain = 0
KFLS 190910Z 33003KT 18/15 A2993 RMK A01 T01840150  RH  082%=      5-min Rain = 0
KFLS 190915Z 02003KT 18/15 A2993 RMK A01 T01840149  RH  081%=      5-min Rain = 0
KFLS 190920Z 02006KT 18/15 A2993 RMK A01 T01770149  RH  085%=      5-min Rain = 0
KFLS 190925Z 02007KT 17/15 A2993 RMK A01 T01740149  RH  087%=      5-min Rain = 0
KFLS 190930Z 02002KT 17/15 A2992 RMK A01 T01720149  RH  089%=      5-min Rain = 0
KFLS 190935Z 08000KT 17/15 A2992 RMK A01 T01710149  RH  089%=      5-min Rain = 0
KFLS 190940Z 23001KT 17/15 A2992 RMK A01 T01700149  RH  089%=      5-min Rain = 0
KFLS 190945Z 16004KT 17/14 A2991 RMK A01 T01650144  RH  089%=      5-min Rain = 0
KFLS 190950Z 13003KT 16/15 A2992 RMK A01 T01620145  RH  092%=      5-min Rain = 0
KFLS 190955Z 10004KT 16/15 A2992 RMK A01 T01640146  RH  091%=      5-min Rain = 0
KFLS 191000Z 09004KT 16/14 A2992 RMK A01 T01600143  RH  091%=      5-min Rain = 0
KFLS 191005Z 09003KT 16/14 A2992 RMK A01 T01580143  RH  092%=      5-min Rain = 0
KFLS 191010Z 11004KT 16/15 A2992 RMK A01 T01630147  RH  092%=      5-min Rain = 0
KFLS 191015Z 13004KT 17/15 A2991 RMK A01 T01660146  RH  090%=      5-min Rain = 0
KFLS 191020Z 15005KT 16/15 A2991 RMK A01 T01640145  RH  091%=      5-min Rain = 0
KFLS 191025Z 15006KT 16/15 A2991 RMK A01 T01610145  RH  092%=      5-min Rain = 0
KFLS 191030Z 16008KT 16/15 A299 RMK A01 T01640148  RH  092%=      5-min Rain = 0
KFLS 191035Z 16008KT 17/15 A299 RMK A01 T01670149  RH  091%=      5-min Rain = 0
KFLS 191040Z 16003KT 17/15 A299 RMK A01 T01690149  RH  090%=      5-min Rain = 0
KFLS 191045Z 14004KT 17/15 A299 RMK A01 T01700149  RH  090%=      5-min Rain = 0
KFLS 191050Z 14008KT 17/15 A299 RMK A01 T01670147  RH  090%=      5-min Rain = 0
KFLS 191055Z 15009KT 17/15 A299 RMK A01 T01660149  RH  091%=      5-min Rain = 0
KFLS 191100Z 16009KT 17/15 A2989 RMK A01 T01710152  RH  090%=      5-min Rain = 0
KFLS 191105Z 16007KT 17/15 A299 RMK A01 T01730152  RH  089%=      5-min Rain = 0
KFLS 191110Z 17007KT 17/15 A299 RMK A01 T01720150  RH  089%=      5-min Rain = 0
KFLS 191115Z 18006KT 17/15 A299 RMK A01 T01710149  RH  089%=      5-min Rain = 0
KFLS 191120Z 19006KT 17/15 A299 RMK A01 T01710148  RH  089%=      5-min Rain = 0
KFLS 191125Z 19007KT 17/15 A299 RMK A01 T01700148  RH  089%=      5-min Rain = 0
KFLS 191130Z 19006KT 17/15 A2991 RMK A01 T01710148  RH  088%=      5-min Rain = 0
KFLS 191135Z 18007KT 17/15 A299 RMK A01 T01700148  RH  089%=      5-min Rain = 0
KFLS 191140Z 17008KT 17/15 A299 RMK A01 T01720150  RH  089%=      5-min Rain = 0
KFLS 191145Z 17009KT 18/15 A299 RMK A01 T01750151  RH  087%=      5-min Rain = 0
KFLS 191150Z 17009KT 18/15 A299 RMK A01 T01780151  RH  086%=      5-min Rain = 0
KFLS 191155Z 17009KT 18/15 A299 RMK A01 T01780151  RH  086%=      5-min Rain = 0
KFLS 191200Z 17009KT 18/15 A299 RMK A01 T01800152  RH  085%=      5-min Rain = 0
KFLS 191205Z 17009KT 18/15 A2989 RMK A01 T01830153  RH  084%=      5-min Rain = 0
KFLS 191210Z 17010KT 19/15 A299 RMK A01 T01850152  RH  083%=      5-min Rain = 0
KFLS 191215Z 17011KT 19/15 A2989 RMK A01 T01870152  RH  082%=      5-min Rain = 0
KFLS 191220Z 17011KT 19/15 A2989 RMK A01 T01880152  RH  082%=      5-min Rain = 0
KFLS 191225Z 17012KT 19/15 A2989 RMK A01 T01890152  RH  081%=      5-min Rain = 0
KFLS 191230Z 17011KT 19/15 A2989 RMK A01 T01910152  RH  080%=      5-min Rain = 0
KFLS 191235Z 17012KT 19/15 A2989 RMK A01 T01910153  RH  080%=      5-min Rain = 0
KFLS 191240Z 17010KT 19/15 A2989 RMK A01 T01920154  RH  080%=      5-min Rain = 0
KFLS 191245Z 17010KT 19/15 A299 RMK A01 T01940154  RH  080%=      5-min Rain = 0
KFLS 191250Z 18011G16KT 20/15 A299 RMK A01 T01950154  RH  079%=      5-min Rain = 0
KFLS 191255Z 18012G17KT 20/15 A299 RMK A01 T01970153  RH  077%=      5-min Rain = 0
KFLS 191300Z 17013KT 20/15 A299 RMK A01 T01990153  RH  077%=      5-min Rain = 0
KFLS 191305Z 18013KT 20/15 A299 RMK A01 T02010154  RH  076%=      5-min Rain = 0
KFLS 191310Z 18013KT 20/15 A299 RMK A01 T02030154  RH  075%=      5-min Rain = 0
KFLS 191315Z 18012KT 20/15 A299 RMK A01 T02040154  RH  075%=      5-min Rain = 0
KFLS 191320Z 18012KT 21/15 A299 RMK A01 T02060154  RH  074%=      5-min Rain = 0
KFLS 191325Z 17013KT 21/15 A2991 RMK A01 T02070154  RH  074%=      5-min Rain = 0
KFLS 191330Z 17012KT 21/16 A2991 RMK A01 T02090155  RH  073%=      5-min Rain = 0
KFLS 191335Z 18012G17KT 21/16 A2991 RMK A01 T02110155  RH  072%=      5-min Rain = 0
KFLS 191340Z 18013KT 21/16 A2991 RMK A01 T02130155  RH  071%=      5-min Rain = 0
KFLS 191345Z 18013KT 22/15 A2991 RMK A01 T02150154  RH  070%=      5-min Rain = 0
KFLS 191350Z 18014KT 22/15 A2991 RMK A01 T02160154  RH  069%=      5-min Rain = 0
KFLS 191355Z 18012G17KT 22/16 A2991 RMK A01 T02190156  RH  069%=      5-min Rain = 0
KFLS 191400Z 18014KT 22/16 A299 RMK A01 T02200155  RH  068%=      5-min Rain = 0
KFLS 191405Z 18015KT 22/16 A299 RMK A01 T02210155  RH  068%=      5-min Rain = 0
KFLS 191410Z 18014KT 22/16 A299 RMK A01 T02220155  RH  067%=      5-min Rain = 0
KFLS 191415Z 19014KT 22/16 A299 RMK A01 T02240155  RH  067%=      5-min Rain = 0
KFLS 191420Z 19013KT 23/16 A299 RMK A01 T02250156  RH  066%=      5-min Rain = 0
KFLS 191425Z 19012G17KT 23/16 A299 RMK A01 T02280158  RH  066%=      5-min Rain = 0
KFLS 191430Z 18013G18KT 23/16 A299 RMK A01 T02280158  RH  066%=      5-min Rain = 0
KFLS 191435Z 19012G17KT 23/16 A2991 RMK A01 T02300159  RH  066%=      5-min Rain = 0
KFLS 191440Z 19013KT 23/16 A299 RMK A01 T02300157  RH  065%=      5-min Rain = 0
KFLS 191445Z 19013KT 23/16 A299 RMK A01 T02310159  RH  065%=      5-min Rain = 0
KFLS 191450Z 20013KT 23/16 A299 RMK A01 T02320158  RH  065%=      5-min Rain = 0
KFLS 191455Z 20013KT 24/16 A299 RMK A01 T02350161  RH  065%=      5-min Rain = 0
KFLS 191500Z 20013KT 24/16 A299 RMK A01 T02350160  RH  064%=      5-min Rain = 0
KFLS 191505Z 20013KT 24/16 A299 RMK A01 T02350160  RH  064%=      5-min Rain = 0
KFLS 191510Z 19012KT 24/16 A299 RMK A01 T02360162  RH  064%=      5-min Rain = 0
KFLS 191515Z 20012KT 24/16 A299 RMK A01 T02360161  RH  064%=      5-min Rain = 0
KFLS 191520Z 21012G17KT 24/16 A2989 RMK A01 T02380161  RH  064%=      5-min Rain = 0
KFLS 191525Z 20012KT 24/16 A2989 RMK A01 T02390162  RH  064%=      5-min Rain = 0
KFLS 191530Z 20011KT 24/16 A299 RMK A01 T02400164  RH  064%=      5-min Rain = 0
KFLS 191535Z 21010KT 24/17 A299 RMK A01 T02430165  RH  063%=      5-min Rain = 0
KFLS 191540Z 23011KT 24/17 A299 RMK A01 T02430165  RH  063%=      5-min Rain = 0
KFLS 191545Z 23010G16KT 25/17 A2989 RMK A01 T02470167  RH  062%=      5-min Rain = 0
KFLS 191550Z 24011KT 25/17 A2989 RMK A01 T02490167  RH  062%=      5-min Rain = 0
KFLS 191555Z 23011G16KT 25/17 A2989 RMK A01 T02490167  RH  062%=      5-min Rain = 0
KFLS 191600Z 23012KT 25/17 A2989 RMK A01 T02490169  RH  062%=      5-min Rain = 0
KFLS 191605Z 24012KT 25/17 A2989 RMK A01 T02500168  RH  062%=      5-min Rain = 0
KFLS 191610Z 24012KT 25/17 A2989 RMK A01 T02520169  RH  061%=      5-min Rain = 0
KFLS 191615Z 24011KT 26/17 A2989 RMK A01 T02550171  RH  061%=      5-min Rain = 0
KFLS 191620Z 24010G15KT 26/17 A2989 RMK A01 T02550173  RH  062%=      5-min Rain = 0
KFLS 191625Z 24008G13KT 26/18 A2989 RMK A01 T02580175  RH  062%=      5-min Rain = 0
KFLS 191630Z 24009G16KT 26/17 A2989 RMK A01 T02580174  RH  061%=      5-min Rain = 0
KFLS 191635Z 25010KT 26/17 A2989 RMK A01 T02610170  RH  059%=      5-min Rain = 0
KFLS 191640Z 26009KT 27/17 A299 RMK A01 T02660172  RH  058%=      5-min Rain = 0
KFLS 191645Z 25009KT 27/17 A299 RMK A01 T02660169  RH  056%=      5-min Rain = 0
KFLS 191650Z 26010KT 27/17 A299 RMK A01 T02670169  RH  056%=      5-min Rain = 0
KFLS 191655Z 27010G17KT 27/17 A299 RMK A01 T02680172  RH  057%=      5-min Rain = 0
KFLS 191700Z 26009KT 27/17 A299 RMK A01 T02710169  RH  055%=      5-min Rain = 0
KFLS 191705Z 27009KT 27/17 A299 RMK A01 T02740165  RH  052%=      5-min Rain = 0
KFLS 191710Z 28008G13KT 27/17 A299 RMK A01 T02730166  RH  053%=      5-min Rain = 0
KFLS 191715Z 27009KT 28/16 A299 RMK A01 T02770162  RH  051%=      5-min Rain = 0
KFLS 191720Z 28008KT 28/16 A299 RMK A01 T02780164  RH  051%=      5-min Rain = 0
KFLS 191725Z 28009G14KT 28/16 A299 RMK A01 T02810163  RH  050%=      5-min Rain = 0
KFLS 191730Z 29009KT 28/16 A2989 RMK A01 T02810161  RH  049%=      5-min Rain = 0
KFLS 191735Z 29007KT 28/16 A2989 RMK A01 T02780158  RH  049%=      5-min Rain = 0
KFLS 191740Z 28009KT 29/15 A2989 RMK A01 T02850154  RH  046%=      5-min Rain = 0
KFLS 191745Z 29010KT 28/15 A2989 RMK A01 T02840148  RH  044%=      5-min Rain = 0
KFLS 191750Z 29010G15KT 28/14 A2989 RMK A01 T02840143  RH  043%=      5-min Rain = 0
KFLS 191755Z 28006G11KT 28/15 A2989 RMK A01 T02840146  RH  044%=      5-min Rain = 0
KFLS 191800Z 30008KT 29/15 A2989 RMK A01 T02860145  RH  043%=      5-min Rain = 0
KFLS 191805Z 28007KT 29/15 A2989 RMK A01 T02850146  RH  044%=      5-min Rain = 0
KFLS 191810Z 29008G13KT 29/15 A2989 RMK A01 T02850145  RH  043%=      5-min Rain = 0
KFLS 191815Z 28008KT 29/14 A2989 RMK A01 T02910142  RH  041%=      5-min Rain = 0
KFLS 191820Z 29006KT 29/14 A2989 RMK A01 T02870140  RH  041%=      5-min Rain = 0
KFLS 191825Z 28007KT 29/14 A2988 RMK A01 T02900140  RH  041%=      5-min Rain = 0
KFLS 191830Z 27008KT 29/14 A2988 RMK A01 T02920143  RH  041%=      5-min Rain = 0
KFLS 191835Z 29008KT 29/14 A2988 RMK A01 T02940141  RH  040%=      5-min Rain = 0
KFLS 191840Z 29006KT 29/14 A2988 RMK A01 T02890140  RH  041%=      5-min Rain = 0
KFLS 191845Z 30007KT 29/14 A2988 RMK A01 T02930142  RH  041%=      5-min Rain = 0
KFLS 191850Z 30009KT 30/14 A2988 RMK A01 T02950139  RH  039%=      5-min Rain = 0
KFLS 191855Z 30007KT 30/15 A2988 RMK A01 T02990146  RH  040%=      5-min Rain = 0
KFLS 191900Z 30007KT 30/14 A2988 RMK A01 T02980142  RH  039%=      5-min Rain = 0
KFLS 191905Z 30006KT 30/14 A2988 RMK A01 T02970143  RH  040%=      5-min Rain = 0
KFLS 191910Z 30005KT 30/15 A2988 RMK A01 T02980146  RH  040%=      5-min Rain = 0
KFLS 191915Z 28002KT 30/15 A2987 RMK A01 T03000148  RH  041%=      5-min Rain = 0
KFLS 191920Z 30004G11KT 30/15 A2987 RMK A01 T03010149  RH  041%=      5-min Rain = 0
KFLS 191925Z 35006KT 31/15 A2987 RMK A01 T03080151  RH  040%=      5-min Rain = 0
KFLS 191930Z 35007G12KT 31/15 A2987 RMK A01 T03070152  RH  040%=      5-min Rain = 0
KFLS 191935Z 34006KT 31/15 A2987 RMK A01 T03060150  RH  040%=      5-min Rain = 0
KFLS 191940Z 34006G13KT 31/14 A2987 RMK A01 T03070143  RH  038%=      5-min Rain = 0
KFLS 191945Z 34004KT 31/14 A2987 RMK A01 T03070144  RH  038%=      5-min Rain = 0
KFLS 191950Z 32009G15KT 31/14 A2987 RMK A01 T03080138  RH  036%=      5-min Rain = 0
KFLS 191955Z 33006KT 31/14 A2987 RMK A01 T03090136  RH  036%=      5-min Rain = 0
KFLS 192000Z 34009KT 31/14 A2986 RMK A01 T03110139  RH  036%=      5-min Rain = 0
KFLS 192005Z 32009G14KT 31/14 A2986 RMK A01 T03130137  RH  035%=      5-min Rain = 0
KFLS 192010Z 31009KT 32/14 A2986 RMK A01 T03170138  RH  035%=      5-min Rain = 0
KFLS 192015Z 30006G11KT 32/13 A2986 RMK A01 T03150132  RH  034%=      5-min Rain = 0
KFLS 192020Z 31009KT 31/13 A2986 RMK A01 T03130133  RH  034%=      5-min Rain = 0
KFLS 192025Z 32009KT 31/13 A2986 RMK A01 T03100132  RH  034%=      5-min Rain = 0
KFLS 192030Z 33007KT 31/14 A2986 RMK A01 T03120135  RH  035%=      5-min Rain = 0
KFLS 192035Z 30009G15KT 32/14 A2986 RMK A01 T03190135  RH  033%=      5-min Rain = 0
KFLS 192040Z 31009G14KT 32/14 A2986 RMK A01 T03160136  RH  034%=      5-min Rain = 0
KFLS 192045Z 32008KT 32/14 A2986 RMK A01 T03160140  RH  035%=      5-min Rain = 0
KFLS 192050Z 29011KT 32/14 A2986 RMK A01 T03170136  RH  034%=      5-min Rain = 0
KFLS 192055Z 28010G15KT 32/13 A2986 RMK A01 T03170130  RH  033%=      5-min Rain = 0
KFLS 192100Z 33010KT 32/14 A2986 RMK A01 T03160140  RH  035%=      5-min Rain = 0
KFLS 192105Z 32007KT 32/14 A2986 RMK A01 T03190141  RH  035%=      5-min Rain = 0
KFLS 192110Z 30006KT 32/14 A2985 RMK A01 T03180138  RH  034%=      5-min Rain = 0
KFLS 192115Z 32009KT 32/13 A2986 RMK A01 T03200133  RH  033%=      5-min Rain = 0
KFLS 192120Z 35008KT 32/14 A2985 RMK A01 T03180143  RH  035%=      5-min Rain = 0
KFLS 192125Z 35006KT 31/14 A2985 RMK A01 T03140136  RH  035%=      5-min Rain = 0
KFLS 192130Z 34005G10KT 32/14 A2985 RMK A01 T03170142  RH  035%=      5-min Rain = 0
KFLS 192135Z 32009KT 32/14 A2985 RMK A01 T03190141  RH  035%=      5-min Rain = 0
KFLS 192140Z 36008KT 32/14 A2985 RMK A01 T03170141  RH  035%=      5-min Rain = 0
KFLS 192145Z 33007KT 32/13 A2985 RMK A01 T03160134  RH  034%=      5-min Rain = 0
KFLS 192150Z 33007KT 32/14 A2985 RMK A01 T03150137  RH  035%=      5-min Rain = 0
KFLS 192155Z 33006KT 32/14 A2985 RMK A01 T03160135  RH  034%=      5-min Rain = 0
KFLS 192200Z 33006KT 32/14 A2984 RMK A01 T03190138  RH  034%=      5-min Rain = 0
KFLS 192205Z 35008KT 32/14 A2985 RMK A01 T03170140  RH  035%=      5-min Rain = 0
KFLS 192210Z 35006KT 32/14 A2985 RMK A01 T03170138  RH  035%=      5-min Rain = 0
KFLS 192215Z 35008KT 32/14 A2984 RMK A01 T03160138  RH  034%=      5-min Rain = 0
KFLS 192220Z 36008G13KT 32/14 A2984 RMK A01 T03160139  RH  035%=      5-min Rain = 0
KFLS 192225Z 35006KT 32/14 A2984 RMK A01 T03170138  RH  035%=      5-min Rain = 0
KFLS 192230Z 36006KT 32/14 A2984 RMK A01 T03150136  RH  034%=      5-min Rain = 0
KFLS 192235Z 02006KT 32/14 A2984 RMK A01 T03150135  RH  034%=      5-min Rain = 0
KFLS 192240Z 03006KT 32/14 A2984 RMK A01 T03150137  RH  035%=      5-min Rain = 0
KFLS 192245Z 03007KT 32/14 A2984 RMK A01 T03150140  RH  035%=      5-min Rain = 0
KFLS 192250Z 35006KT 32/14 A2983 RMK A01 T03170138  RH  034%=      5-min Rain = 0
KFLS 192255Z 02005KT 32/13 A2983 RMK A01 T03160133  RH  034%=      5-min Rain = 0
KFLS 192300Z 35005KT 32/13 A2983 RMK A01 T03170134  RH  034%=      5-min Rain = 0
KFLS 192305Z 36004KT 32/13 A2983 RMK A01 T03170132  RH  033%=      5-min Rain = 0
KFLS 192310Z 01008KT 32/14 A2983 RMK A01 T03150143  RH  036%=      5-min Rain = 0
KFLS 192315Z 02007KT 31/14 A2983 RMK A01 T03130142  RH  036%=      5-min Rain = 0
KFLS 192320Z 02005KT 31/14 A2983 RMK A01 T03130139  RH  035%=      5-min Rain = 0
KFLS 192325Z 03007KT 31/14 A2983 RMK A01 T03130140  RH  036%=      5-min Rain = 0
KFLS 192330Z 03007KT 31/14 A2983 RMK A01 T03110142  RH  037%=      5-min Rain = 0
KFLS 192335Z 03006KT 31/14 A2983 RMK A01 T03110144  RH  037%=      5-min Rain = 0
KFLS 192340Z 05005KT 31/14 A2983 RMK A01 T03100136  RH  035%=      5-min Rain = 0
KFLS 192345Z 04007G12KT 31/14 A2983 RMK A01 T03090143  RH  037%=      5-min Rain = 0
KFLS 192350Z 04006KT 31/14 A2983 RMK A01 T03080139  RH  036%=      5-min Rain = 0
KFLS 192355Z 04007KT 31/15 A2982 RMK A01 T03070153  RH  040%=      5-min Rain = 0
KFLS 200000Z 04009KT 30/15 A2982 RMK A01 T03040146  RH  039%=      5-min Rain = 0
KFLS 200005Z 05007KT 30/15 A2982 RMK A01 T03020151  RH  041%=      5-min Rain = 0
KFLS 200010Z 06009KT 30/15 A2982 RMK A01 T02990152  RH  042%=      5-min Rain = 0
KFLS 200015Z 06008KT 30/16 A2982 RMK A01 T02960157  RH  044%=      5-min Rain = 0
KFLS 200020Z 06010KT 29/15 A2982 RMK A01 T02940152  RH  043%=      5-min Rain = 0
KFLS 200025Z 07009KT 29/16 A2982 RMK A01 T02920155  RH  044%=      5-min Rain = 0
KFLS 200030Z 06009KT 29/15 A2982 RMK A01 T02920153  RH  044%=      5-min Rain = 0
KFLS 200035Z 06009KT 29/16 A2981 RMK A01 T02900155  RH  045%=      5-min Rain = 0
KFLS 200040Z 07008KT 29/16 A2981 RMK A01 T02880155  RH  045%=      5-min Rain = 0
KFLS 200045Z 07008KT 29/16 A2981 RMK A01 T02870155  RH  046%=      5-min Rain = 0
KFLS 200050Z 07007KT 29/16 A2981 RMK A01 T02850157  RH  047%=      5-min Rain = 0
KFLS 200055Z 07007KT 28/16 A2981 RMK A01 T02810160  RH  049%=      5-min Rain = 0
KFLS 200100Z 06006KT 28/17 A2981 RMK A01 T02790165  RH  051%=      5-min Rain = 0
KFLS 200105Z 07006KT 28/17 A2981 RMK A01 T02760168  RH  053%=      5-min Rain = 0
KFLS 200110Z 06006KT 27/17 A2981 RMK A01 T02730171  RH  055%=      5-min Rain = 0
KFLS 200115Z 06006KT 27/17 A2981 RMK A01 T02700172  RH  056%=      5-min Rain = 0
KFLS 200120Z 07006KT 27/17 A2981 RMK A01 T02660172  RH  057%=      5-min Rain = 0
KFLS 200125Z 07006KT 26/17 A2981 RMK A01 T02620172  RH  059%=      5-min Rain = 0
KFLS 200130Z 07006KT 26/17 A2981 RMK A01 T02590174  RH  061%=      5-min Rain = 0
KFLS 200135Z 06006KT 26/18 A2981 RMK A01 T02550176  RH  063%=      5-min Rain = 0
KFLS 200140Z 07007KT 25/18 A2981 RMK A01 T02480175  RH  065%=      5-min Rain = 0
KFLS 200145Z 06007KT 25/18 A2981 RMK A01 T02450176  RH  067%=      5-min Rain = 0
KFLS 200150Z 06006KT 24/18 A2981 RMK A01 T02420179  RH  070%=      5-min Rain = 0
KFLS 200155Z 08006KT 24/18 A2981 RMK A01 T02350175  RH  071%=      5-min Rain = 0
KFLS 200200Z 07007KT 24/17 A2982 RMK A01 T02350174  RH  070%=      5-min Rain = 0
KFLS 200205Z 08007KT 23/17 A2982 RMK A01 T02310174  RH  072%=      5-min Rain = 0
KFLS 200210Z 10008KT 23/17 A2982 RMK A01 T02270172  RH  073%=      5-min Rain = 0
KFLS 200215Z 10009KT 23/17 A2982 RMK A01 T02270171  RH  072%=      5-min Rain = 0
KFLS 200220Z 09007KT 23/17 A2982 RMK A01 T02270173  RH  073%=      5-min Rain = 0
KFLS 200225Z 10007KT 22/18 A2982 RMK A01 T02230175  RH  076%=      5-min Rain = 0
KFLS 200230Z 10007KT 22/18 A2982 RMK A01 T02200177  RH  078%=      5-min Rain = 0
KFLS 200235Z 10007KT 22/18 A2982 RMK A01 T02180178  RH  080%=      5-min Rain = 0
KFLS 200240Z 10007KT 22/18 A2982 RMK A01 T02210180  RH  080%=      5-min Rain = 0
KFLS 200245Z 10007KT 22/18 A2982 RMK A01 T02220181  RH  079%=      5-min Rain = 0
KFLS 200250Z 11008KT 22/18 A2982 RMK A01 T02220183  RH  080%=      5-min Rain = 0
KFLS 200255Z 11007KT 22/18 A2983 RMK A01 T02230184  RH  081%=      5-min Rain = 0
KFLS 200300Z 12006KT 22/19 A2983 RMK A01 T02220186  RH  082%=      5-min Rain = 0
KFLS 200305Z 12006KT 22/19 A2983 RMK A01 T02230186  RH  082%=      5-min Rain = 0
KFLS 200310Z 12006KT 22/19 A2983 RMK A01 T02220185  RH  082%=      5-min Rain = 0
KFLS 200315Z 12006KT 22/18 A2983 RMK A01 T02200184  RH  082%=      5-min Rain = 0
KFLS 200320Z 13007KT 22/18 A2983 RMK A01 T02220184  RH  081%=      5-min Rain = 0
KFLS 200325Z 13007KT 22/19 A2984 RMK A01 T02240185  RH  081%=      5-min Rain = 0
KFLS 200330Z 12007KT 22/18 A2984 RMK A01 T02220184  RH  082%=      5-min Rain = 0
KFLS 200335Z 11007KT 22/18 A2984 RMK A01 T02190184  RH  083%=      5-min Rain = 0
KFLS 200340Z 11006KT 22/18 A2984 RMK A01 T02160183  RH  084%=      5-min Rain = 0
KFLS 200345Z 12006KT 22/18 A2985 RMK A01 T02150184  RH  085%=      5-min Rain = 0
KFLS 200350Z 13006KT 22/19 A2985 RMK A01 T02190185  RH  083%=      5-min Rain = 0
KFLS 200355Z 12006KT 22/18 A2985 RMK A01 T02190184  RH  083%=      5-min Rain = 0
KFLS 200400Z 12007KT 22/18 A2985 RMK A01 T02170183  RH  083%=      5-min Rain = 0
KFLS 200405Z 13007KT 22/18 A2985 RMK A01 T02170183  RH  083%=      5-min Rain = 0
KFLS 200410Z 12006KT 22/18 A2985 RMK A01 T02180182  RH  082%=      5-min Rain = 0
KFLS 200415Z 12006KT 22/18 A2986 RMK A01 T02160181  RH  082%=      5-min Rain = 0
KFLS 200420Z 11006KT 21/18 A2986 RMK A01 T02110179  RH  084%=      5-min Rain = 0
KFLS 200425Z 10007KT 21/18 A2986 RMK A01 T02080179  RH  086%=      5-min Rain = 0
KFLS 200430Z 10006KT 21/18 A2986 RMK A01 T02060179  RH  087%=      5-min Rain = 0
KFLS 200435Z 10007KT 21/18 A2986 RMK A01 T02060178  RH  086%=      5-min Rain = 0
KFLS 200440Z 11008KT 21/18 A2986 RMK A01 T02060179  RH  087%=      5-min Rain = 0
KFLS 200445Z 13007KT 21/18 A2986 RMK A01 T02090181  RH  086%=      5-min Rain = 0
KFLS 200450Z 12006KT 21/18 A2986 RMK A01 T02130182  RH  085%=      5-min Rain = 0
KFLS 200455Z 10007KT 21/18 A2986 RMK A01 T02070180  RH  087%=      5-min Rain = 0

Page generated in 0.0202 seconds.